Point Mugu NAWC, California
Current Conditions -  °F | °C
As of 12:56 PM on Thursday 18 Dec 2014 (Local Time) from KNTD Reporting Station
Broken Clouds Broken Clouds  
Wind Chill: 61°   Ceiling: 4300
Heat Index: 61°   Visibility: 10mi
Dew Point: 50°   Wind: 5mph
Humidity: 67%   Direction: 20°NNE
Pressure: 30.15"   Gusts: NA
Location:  34.1°N, 119.06°W
Report Text: KNTD 182056Z 02004KT 10SM BKN043 16/10 A3015 RMK AO2 SLP211 T01610100 58022 $
Loading
Personal Weather Stations






























Interactive Weather Map New forecast layout! Learn more

10-Day Weather Forecast

Advertisements
Track Severe Weather on mobile